Time;durP1;ratioP1;P1;durP2;ratioP2;P2;SDS_P1;SDS_P2;PMS_P1;PMS_P2;Temp;Humidity;BMP_temperature;BMP_pressure;BME280_temperature;BME280_humidity;BME280_pressure;Samples;Min_cycle;Max_cycle;Signal;HPM_P1;HPM_P2
2023/01/12 00:01:28;;;;;;;11.98;1.77;;;9.00;84.90;;;;;;5049105;28;20132;-81
2023/01/12 00:03:56;;;;;;;8.73;1.38;;;8.90;85.00;;;;;;5047640;28;20057;-82
2023/01/12 00:06:24;;;;;;;8.85;1.73;;;8.90;85.10;;;;;;5048787;28;20145;-82
2023/01/12 00:08:53;;;;;;;10.77;2.07;;;8.90;85.20;;;;;;5048170;28;20610;-81
2023/01/12 00:11:20;;;;;;;9.05;1.75;;;9.00;85.30;;;;;;5031892;28;20792;-81
2023/01/12 00:13:51;;;;;;;8.25;1.92;;;8.90;85.30;;;;;;5048083;28;20700;-81
2023/01/12 00:16:36;;;;;;;11.77;2.33;;;8.90;85.50;;;;;;5048634;28;20141;-81
2023/01/12 00:19:05;;;;;;;14.88;2.20;;;8.90;85.70;;;;;;5011955;28;20057;-81
2023/01/12 00:21:35;;;;;;;14.83;2.40;;;8.90;85.70;;;;;;5035087;28;20128;-83
2023/01/12 00:24:06;;;;;;;10.90;2.13;;;8.90;86.00;;;;;;5048223;28;20045;-81
2023/01/12 00:26:34;;;;;;;9.98;2.28;;;8.90;85.90;;;;;;5047251;28;20681;-81
2023/01/12 00:29:01;;;;;;;13.20;2.55;;;8.90;85.80;;;;;;5047563;28;20057;-81
2023/01/12 00:31:28;;;;;;;10.80;2.10;;;8.80;85.70;;;;;;5048176;28;20081;-81
2023/01/12 00:33:55;;;;;;;16.60;2.43;;;8.80;85.70;;;;;;5049136;28;20512;-81
2023/01/12 00:36:22;;;;;;;13.82;2.85;;;8.80;85.70;;;;;;5031456;28;20132;-81
2023/01/12 00:38:49;;;;;;;15.73;2.17;;;8.80;85.70;;;;;;5046170;28;20191;-81
2023/01/12 00:45:20;;;;;;;14.43;2.45;;;8.80;85.50;;;;;;5048380;28;20140;-82
2023/01/12 00:46:49;;;;;;;13.43;2.20;;;8.80;85.40;;;;;;5047772;28;20045;-81
2023/01/12 00:49:16;;;;;;;16.48;2.30;;;8.80;85.20;;;;;;5030873;28;20434;-81
2023/01/12 00:51:44;;;;;;;15.02;2.85;;;8.80;85.20;;;;;;5049979;28;20057;-81
2023/01/12 00:54:11;;;;;;;12.10;2.20;;;8.80;85.30;;;;;;5048003;28;20053;-81
2023/01/12 00:56:39;;;;;;;15.32;2.85;;;8.90;85.10;;;;;;5046263;28;20057;-81
2023/01/12 00:59:06;;;;;;;13.50;2.10;;;8.90;85.00;;;;;;5048198;28;20724;-79
2023/01/12 01:01:36;;;;;;;12.65;1.98;;;8.90;85.10;;;;;;5030838;28;20056;-80
2023/01/12 01:04:03;;;;;;;13.60;2.20;;;8.90;85.40;;;;;;5047360;28;20136;-80
2023/01/12 01:06:29;;;;;;;10.25;2.00;;;8.90;85.50;;;;;;5047275;28;20049;-79
2023/01/12 01:08:56;;;;;;;17.88;2.60;;;8.90;85.70;;;;;;5047429;28;20421;-79
2023/01/12 01:11:23;;;;;;;14.40;2.37;;;8.90;85.70;;;;;;5048868;28;20049;-79
2023/01/12 01:13:53;;;;;;;15.00;2.40;;;8.90;85.50;;;;;;5047127;28;20050;-79
2023/01/12 01:16:22;;;;;;;14.20;2.08;;;8.90;85.50;;;;;;5047204;28;20057;-79
2023/01/12 01:18:49;;;;;;;17.52;2.63;;;8.90;85.50;;;;;;5048411;28;20060;-79
2023/01/12 01:21:17;;;;;;;14.18;2.42;;;8.90;85.50;;;;;;5048512;28;20155;-79
2023/01/12 01:23:49;;;;;;;12.17;2.27;;;8.90;85.40;;;;;;5047013;28;20038;-79
2023/01/12 01:26:19;;;;;;;14.30;2.10;;;9.00;85.30;;;;;;5047238;28;20073;-80
2023/01/12 01:28:47;;;;;;;15.80;2.60;;;9.00;85.30;;;;;;5047260;28;20053;-79
2023/01/12 01:31:17;;;;;;;12.30;2.15;;;9.00;85.30;;;;;;5047192;28;20057;-81
2023/01/12 01:33:44;;;;;;;12.90;1.92;;;9.00;85.30;;;;;;5047239;28;20557;-79
2023/01/12 01:36:12;;;;;;;15.13;2.43;;;9.00;85.40;;;;;;5047450;28;20366;-79
2023/01/12 01:38:39;;;;;;;13.43;2.55;;;9.00;85.50;;;;;;5046145;28;20057;-79
2023/01/12 01:41:07;;;;;;;15.23;2.53;;;9.00;85.60;;;;;;5046502;28;20558;-80
2023/01/12 01:43:49;;;;;;;12.57;2.42;;;9.00;85.30;;;;;;5047220;28;20060;-79
2023/01/12 01:46:41;;;;;;;14.73;2.70;;;9.00;85.20;;;;;;5048372;28;20075;-80
2023/01/12 01:49:17;;;;;;;9.40;1.90;;;9.00;85.20;;;;;;5026214;28;20052;-79
2023/01/12 01:51:45;;;;;;;16.20;2.70;;;9.00;85.30;;;;;;5046547;28;20685;-80
2023/01/12 01:54:15;;;;;;;13.27;2.50;;;9.00;85.40;;;;;;5046711;28;20100;-81
2023/01/12 01:56:43;;;;;;;13.43;2.30;;;9.00;85.20;;;;;;5046468;28;20506;-80
2023/01/12 01:59:14;;;;;;;12.65;2.65;;;9.00;85.10;;;;;;5046126;28;20065;-80
2023/01/12 02:01:42;;;;;;;13.50;2.70;;;9.00;85.10;;;;;;5046678;28;20137;-81
2023/01/12 02:04:10;;;;;;;13.75;2.38;;;9.00;85.10;;;;;;5028455;28;20041;-80
2023/01/12 02:06:38;;;;;;;16.63;2.83;;;9.00;85.10;;;;;;5046221;28;20923;-80
2023/01/12 02:09:09;;;;;;;14.38;2.42;;;9.00;85.30;;;;;;5046627;28;20582;-82
2023/01/12 02:17:18;;;;;;;10.27;2.47;;;9.10;85.50;;;;;;5010084;28;20140;-79
2023/01/12 02:20:35;;;;;;;13.55;2.60;;;9.00;85.80;;;;;;5028124;28;20121;-80
2023/01/12 02:23:47;;;;;;;13.68;3.10;;;9.00;86.10;;;;;;5046165;28;20050;-81
2023/01/12 02:26:50;;;;;;;18.60;3.15;;;9.00;86.30;;;;;;5046110;28;20069;-81
2023/01/12 02:29:42;;;;;;;13.37;2.20;;;9.00;86.60;;;;;;5045973;28;20053;-80
2023/01/12 02:32:18;;;;;;;17.13;2.65;;;9.00;86.70;;;;;;5046432;28;20104;-80
2023/01/12 02:34:54;;;;;;;18.60;3.42;;;9.00;87.00;;;;;;5045798;28;20045;-80
2023/01/12 02:37:32;;;;;;;20.73;3.25;;;9.00;87.20;;;;;;5046432;28;20137;-79
2023/01/12 02:40:07;;;;;;;14.23;2.60;;;9.00;87.20;;;;;;5044532;28;20496;-80
2023/01/12 02:42:43;;;;;;;14.73;2.47;;;9.00;87.30;;;;;;5046096;28;20078;-80
2023/01/12 02:45:34;;;;;;;10.52;2.25;;;9.00;87.40;;;;;;5045793;28;20077;-80
2023/01/12 02:48:09;;;;;;;14.63;2.75;;;9.10;87.50;;;;;;5045845;28;20136;-80
2023/01/12 02:50:43;;;;;;;15.05;2.50;;;9.10;87.50;;;;;;5048190;28;20498;-80
2023/01/12 02:53:17;;;;;;;13.85;2.72;;;9.10;87.50;;;;;;5049504;28;20053;-80
2023/01/12 02:55:45;;;;;;;14.43;2.67;;;9.10;87.50;;;;;;5049344;28;20136;-80
2023/01/12 02:58:16;;;;;;;13.05;2.55;;;9.20;87.50;;;;;;5049823;28;20053;-80
2023/01/12 03:00:45;;;;;;;13.25;2.40;;;9.20;87.60;;;;;;5049241;28;20052;-80
2023/01/12 03:03:14;;;;;;;12.95;2.38;;;9.20;87.80;;;;;;5049740;28;20489;-80
2023/01/12 03:05:42;;;;;;;13.50;2.15;;;9.20;87.90;;;;;;5049185;28;20050;-81
2023/01/12 03:08:11;;;;;;;9.47;2.00;;;9.20;88.10;;;;;;5049150;28;20451;-80
2023/01/12 03:10:53;;;;;;;15.75;2.72;;;9.20;88.00;;;;;;5050594;28;20550;-81
2023/01/12 03:13:22;;;;;;;13.88;2.47;;;9.20;88.00;;;;;;5049603;28;20108;-79
2023/01/12 03:15:53;;;;;;;10.43;2.13;;;9.20;88.10;;;;;;5050600;28;20053;-79
2023/01/12 03:18:30;;;;;;;16.67;2.22;;;9.20;88.00;;;;;;5048954;28;20042;-81
2023/01/12 03:21:02;;;;;;;12.77;2.23;;;9.20;88.10;;;;;;5048926;28;20125;-80
2023/01/12 03:23:33;;;;;;;13.00;2.55;;;9.20;88.20;;;;;;5050451;28;20504;-80
2023/01/12 03:26:03;;;;;;;12.50;2.40;;;9.20;88.10;;;;;;5049273;28;20121;-80
2023/01/12 03:28:35;;;;;;;10.82;1.67;;;9.20;88.20;;;;;;5050509;28;20159;-81
2023/01/12 03:31:08;;;;;;;12.00;2.30;;;9.20;88.20;;;;;;5046692;28;20053;-80
2023/01/12 03:33:38;;;;;;;12.17;1.87;;;9.30;88.30;;;;;;5050992;28;20084;-80
2023/01/12 03:36:13;;;;;;;10.30;2.38;;;9.30;88.40;;;;;;5048539;28;20487;-79
2023/01/12 03:38:48;;;;;;;10.98;2.20;;;9.30;88.40;;;;;;5048693;28;20277;-79
2023/01/12 03:41:25;;;;;;;12.73;1.90;;;9.30;88.20;;;;;;5048933;28;20136;-80
2023/01/12 03:43:57;;;;;;;11.75;1.98;;;9.40;88.20;;;;;;5049131;28;20050;-80
2023/01/12 03:46:28;;;;;;;8.17;1.70;;;9.40;88.20;;;;;;5048881;28;20069;-81
2023/01/12 03:49:01;;;;;;;7.07;1.15;;;9.30;88.20;;;;;;5047735;28;20561;-80
2023/01/12 03:51:32;;;;;;;7.18;1.40;;;9.40;88.10;;;;;;5048915;28;20132;-79
2023/01/12 03:54:00;;;;;;;7.78;1.40;;;9.40;88.10;;;;;;5048683;28;20051;-79
2023/01/12 03:56:31;;;;;;;9.02;1.60;;;9.40;88.00;;;;;;5048895;28;20067;-80
2023/01/12 03:58:59;;;;;;;9.20;1.73;;;9.30;88.10;;;;;;5047988;28;20056;-80
2023/01/12 04:01:25;;;;;;;7.85;1.65;;;9.30;88.10;;;;;;5049638;28;20157;-80
2023/01/12 04:03:52;;;;;;;9.50;1.83;;;9.30;88.20;;;;;;5048534;28;20148;-80
2023/01/12 04:06:21;;;;;;;9.60;1.98;;;9.40;88.20;;;;;;5048232;28;20642;-80
2023/01/12 04:08:48;;;;;;;9.18;1.95;;;9.30;88.30;;;;;;5049492;28;20109;-80
2023/01/12 04:13:59;;;;;;;7.03;1.20;;;9.40;88.20;;;;;;5048284;28;20069;-80
2023/01/12 04:16:26;;;;;;;8.45;1.92;;;9.30;88.30;;;;;;5048353;28;20100;-79
2023/01/12 04:18:53;;;;;;;9.77;1.95;;;9.30;88.30;;;;;;5048028;28;20137;-81
2023/01/12 04:24:06;;;;;;;6.43;1.70;;;9.40;88.40;;;;;;5029814;28;20045;-82
2023/01/12 04:26:33;;;;;;;8.55;1.73;;;9.30;88.40;;;;;;5028087;28;20046;-82
2023/01/12 04:29:00;;;;;;;7.53;1.80;;;9.40;88.20;;;;;;5046808;28;20531;-81
2023/01/12 04:31:27;;;;;;;7.53;1.58;;;9.40;88.10;;;;;;5047698;28;20135;-81
2023/01/12 04:33:54;;;;;;;6.55;1.20;;;9.40;87.80;;;;;;5047949;28;20507;-80
2023/01/12 04:36:22;;;;;;;4.80;1.00;;;9.40;87.60;;;;;;5049854;28;20049;-80
2023/01/12 04:38:49;;;;;;;5.88;1.20;;;9.40;87.50;;;;;;5045875;28;20041;-80
2023/01/12 04:41:16;;;;;;;7.00;1.00;;;9.40;87.60;;;;;;5047674;28;20681;-80
2023/01/12 04:43:43;;;;;;;6.32;1.38;;;9.40;87.60;;;;;;5047748;28;20502;-80
2023/01/12 04:46:10;;;;;;;4.95;1.27;;;9.40;87.80;;;;;;5049006;28;20107;-80
2023/01/12 04:48:37;;;;;;;6.17;1.57;;;9.40;87.90;;;;;;5047363;28;20124;-81
2023/01/12 04:51:05;;;;;;;7.93;1.65;;;9.40;88.00;;;;;;5047363;28;20053;-81
2023/01/12 04:53:33;;;;;;;5.60;1.23;;;9.40;88.00;;;;;;5047342;28;20119;-80
2023/01/12 04:56:04;;;;;;;5.28;1.17;;;9.30;88.00;;;;;;5047812;28;20046;-80
2023/01/12 04:58:31;;;;;;;7.40;1.20;;;9.40;88.00;;;;;;5046710;28;20105;-80
2023/01/12 05:00:58;;;;;;;4.93;0.97;;;9.30;87.90;;;;;;5047399;28;20041;-79
2023/01/12 05:03:25;;;;;;;5.50;0.90;;;9.30;87.70;;;;;;5047444;28;20401;-79
2023/01/12 05:05:52;;;;;;;5.47;0.80;;;9.30;87.70;;;;;;5048683;28;20050;-79
2023/01/12 05:11:04;;;;;;;4.35;0.85;;;9.20;87.30;;;;;;5047171;28;20042;-79
2023/01/12 05:13:31;;;;;;;5.33;0.97;;;9.20;87.40;;;;;;5045273;28;20076;-80
2023/01/12 05:16:08;;;;;;;4.80;1.02;;;9.20;87.50;;;;;;5048862;28;20054;-80
2023/01/12 05:18:35;;;;;;;5.05;0.77;;;9.20;87.50;;;;;;5048773;28;20057;-80
2023/01/12 05:21:02;;;;;;;6.35;0.88;;;9.20;87.60;;;;;;5047229;28;20049;-81
2023/01/12 05:23:29;;;;;;;3.03;0.60;;;9.10;87.50;;;;;;5046891;28;20124;-80
2023/01/12 05:25:59;;;;;;;4.57;0.60;;;9.10;87.50;;;;;;5048756;28;20518;-79
2023/01/12 05:28:27;;;;;;;4.32;0.70;;;9.00;87.60;;;;;;5048433;28;20527;-79
2023/01/12 05:30:54;;;;;;;4.15;0.90;;;9.10;87.60;;;;;;5045451;28;20065;-80
2023/01/12 05:33:21;;;;;;;3.25;0.70;;;9.00;87.50;;;;;;5046691;28;20570;-79
2023/01/12 05:35:48;;;;;;;4.20;0.60;;;9.00;87.10;;;;;;5046891;28;20577;-79
2023/01/12 05:38:15;;;;;;;5.60;0.80;;;9.00;87.30;;;;;;5046490;28;20053;-78
2023/01/12 05:40:42;;;;;;;3.33;0.50;;;9.00;87.40;;;;;;5046303;28;20119;-79
2023/01/12 05:46:03;;;;;;;5.30;0.70;;;9.00;87.60;;;;;;5046730;28;20060;-79
2023/01/12 05:48:30;;;;;;;4.50;0.80;;;9.00;87.50;;;;;;5045203;28;20589;-79
2023/01/12 05:51:00;;;;;;;5.13;0.80;;;9.00;87.70;;;;;;5047951;28;20133;-78
2023/01/12 05:53:27;;;;;;;5.53;0.70;;;9.00;87.90;;;;;;5046651;28;20077;-80
2023/01/12 05:55:53;;;;;;;4.43;0.80;;;9.00;87.90;;;;;;5046873;28;20133;-79
2023/01/12 05:58:21;;;;;;;5.80;0.90;;;9.10;88.00;;;;;;5047730;28;20081;-78
2023/01/12 06:00:48;;;;;;;5.45;0.93;;;9.10;88.00;;;;;;5046187;28;20096;-78
2023/01/12 06:03:16;;;;;;;4.70;0.80;;;9.20;88.10;;;;;;5046199;28;20666;-78
2023/01/12 06:05:43;;;;;;;5.20;0.70;;;9.20;88.20;;;;;;5044767;28;20077;-78
2023/01/12 06:08:10;;;;;;;4.65;0.90;;;9.20;88.20;;;;;;5046705;28;20855;-78
2023/01/12 06:10:38;;;;;;;5.47;0.70;;;9.20;88.20;;;;;;5045980;28;20058;-78
2023/01/12 06:15:49;;;;;;;3.87;0.47;;;9.20;88.60;;;;;;5062761;28;20597;-79
2023/01/12 06:18:21;;;;;;;5.00;0.90;;;9.20;88.70;;;;;;5029587;28;20042;-79
2023/01/12 06:20:48;;;;;;;3.28;0.70;;;9.20;89.00;;;;;;5029251;28;20060;-79
2023/01/12 06:23:15;;;;;;;4.05;0.47;;;9.20;89.30;;;;;;5044409;28;20072;-78
2023/01/12 06:25:42;;;;;;;2.53;0.47;;;9.20;89.30;;;;;;5046238;28;20054;-79
2023/01/12 06:28:09;;;;;;;4.80;0.63;;;9.20;89.50;;;;;;5045865;28;20443;-79
2023/01/12 06:30:35;;;;;;;3.55;0.50;;;9.20;89.80;;;;;;5045478;28;20101;-79
2023/01/12 06:33:03;;;;;;;2.50;0.38;;;9.30;89.80;;;;;;5047997;28;20072;-81
2023/01/12 06:35:31;;;;;;;2.85;0.40;;;9.30;89.80;;;;;;5046621;28;20049;-79
2023/01/12 06:37:58;;;;;;;2.10;0.40;;;9.40;90.00;;;;;;5047474;28;20088;-80
2023/01/12 06:40:25;;;;;;;3.30;0.40;;;9.40;90.20;;;;;;5044637;28;20092;-80
2023/01/12 06:42:51;;;;;;;2.88;0.45;;;9.40;90.30;;;;;;5045999;28;20553;-78
2023/01/12 06:45:18;;;;;;;3.15;0.50;;;9.40;90.50;;;;;;5046409;28;20140;-78
2023/01/12 06:47:46;;;;;;;2.00;0.45;;;9.40;90.40;;;;;;5047470;28;20052;-77
2023/01/12 06:50:13;;;;;;;2.70;0.47;;;9.50;90.40;;;;;;5045730;28;20069;-78
2023/01/12 06:52:42;;;;;;;2.40;0.50;;;9.50;90.70;;;;;;5047497;28;20204;-78
2023/01/12 06:55:09;;;;;;;2.33;0.47;;;9.50;90.70;;;;;;5045301;28;20131;-81
2023/01/12 06:57:36;;;;;;;3.35;0.40;;;9.50;90.70;;;;;;5044062;28;20520;-80
2023/01/12 07:00:05;;;;;;;1.73;0.30;;;9.50;90.50;;;;;;5047272;28;20085;-80
2023/01/12 07:02:32;;;;;;;2.83;0.60;;;9.60;90.60;;;;;;5047157;28;20081;-80
2023/01/12 07:04:58;;;;;;;2.90;0.50;;;9.60;90.80;;;;;;5028866;28;20160;-81
2023/01/12 07:07:25;;;;;;;2.78;0.50;;;9.60;90.80;;;;;;5061989;28;20531;-80
2023/01/12 07:09:54;;;;;;;2.40;0.52;;;9.60;90.70;;;;;;5045325;28;20136;-81
2023/01/12 07:12:21;;;;;;;2.97;0.52;;;9.70;90.70;;;;;;5047102;28;20050;-79
2023/01/12 07:14:48;;;;;;;2.15;0.40;;;9.60;90.70;;;;;;5027629;28;20060;-81
2023/01/12 07:17:15;;;;;;;2.57;0.50;;;9.70;90.80;;;;;;5045776;28;20706;-80
2023/01/12 07:19:42;;;;;;;3.28;0.50;;;9.70;90.80;;;;;;5044947;28;20468;-79
2023/01/12 07:22:09;;;;;;;2.30;0.43;;;9.70;90.80;;;;;;5045809;28;20070;-80
2023/01/12 07:24:36;;;;;;;2.45;0.70;;;9.70;90.80;;;;;;5045030;28;20537;-80
2023/01/12 07:27:04;;;;;;;3.20;0.70;;;9.80;90.70;;;;;;5045362;28;20133;-79
2023/01/12 07:29:31;;;;;;;2.93;0.80;;;9.80;90.80;;;;;;5045180;28;20045;-80
2023/01/12 07:31:58;;;;;;;3.83;0.90;;;9.80;90.60;;;;;;5045846;28;20351;-79
2023/01/12 07:34:25;;;;;;;3.38;1.00;;;9.80;90.70;;;;;;5045627;28;20049;-79
2023/01/12 07:36:52;;;;;;;2.85;0.80;;;9.80;90.70;;;;;;5029681;28;20100;-81
2023/01/12 07:39:19;;;;;;;2.78;0.82;;;9.80;90.70;;;;;;5049359;28;20081;-81
2023/01/12 07:44:31;;;;;;;3.20;1.10;;;9.80;91.00;;;;;;5048628;28;20057;-80
2023/01/12 07:46:59;;;;;;;4.78;1.38;;;9.90;91.10;;;;;;5046509;28;20050;-78
2023/01/12 07:49:26;;;;;;;4.88;1.30;;;10.00;91.00;;;;;;5047644;28;20041;-79
2023/01/12 07:51:53;;;;;;;3.42;1.23;;;10.00;90.90;;;;;;5048393;28;20061;-80
2023/01/12 07:54:20;;;;;;;5.10;1.63;;;9.90;91.20;;;;;;5048365;28;20172;-80
2023/01/12 07:56:47;;;;;;;3.95;1.38;;;9.90;91.40;;;;;;5049910;28;20125;-80
2023/01/12 07:59:14;;;;;;;4.03;1.40;;;10.00;91.30;;;;;;5049592;28;20056;-80
2023/01/12 08:01:42;;;;;;;3.28;1.17;;;10.00;91.40;;;;;;5048503;28;20688;-80
2023/01/12 08:04:09;;;;;;;4.07;1.42;;;10.00;91.50;;;;;;5047055;28;20049;-80
2023/01/12 08:06:36;;;;;;;4.27;1.00;;;10.00;91.50;;;;;;5047734;28;20053;-80
2023/01/12 08:09:04;;;;;;;5.53;1.40;;;10.00;91.50;;;;;;5031269;28;20149;-81
2023/01/12 08:11:31;;;;;;;4.72;1.30;;;10.00;91.70;;;;;;5048192;28;20076;-81
2023/01/12 08:13:58;;;;;;;5.15;1.17;;;10.00;91.80;;;;;;5049541;28;20503;-79
2023/01/12 08:16:30;;;;;;;6.70;1.70;;;10.00;92.00;;;;;;5047487;28;20133;-81
2023/01/12 08:19:02;;;;;;;6.97;2.00;;;10.00;92.00;;;;;;5047901;28;20050;-81
2023/01/12 08:21:32;;;;;;;6.82;1.55;;;10.10;92.00;;;;;;5046396;28;20100;-80
2023/01/12 08:24:01;;;;;;;5.85;1.30;;;10.10;92.10;;;;;;5048218;28;20144;-80
2023/01/12 08:26:35;;;;;;;9.98;2.45;;;10.10;92.10;;;;;;5049266;28;20050;-80
2023/01/12 08:29:07;;;;;;;8.40;1.58;;;10.10;92.20;;;;;;5049033;28;20144;-81
2023/01/12 08:31:35;;;;;;;8.77;1.80;;;10.10;92.30;;;;;;5049508;28;20073;-81
2023/01/12 08:34:04;;;;;;;10.82;1.70;;;10.20;92.30;;;;;;5048459;28;20059;-80
2023/01/12 08:36:31;;;;;;;8.45;2.08;;;10.20;92.50;;;;;;5047607;28;20519;-81
2023/01/12 08:39:00;;;;;;;5.28;0.80;;;10.20;92.50;;;;;;5046061;28;20056;-80
2023/01/12 08:41:33;;;;;;;15.43;2.63;;;10.30;92.60;;;;;;5047222;28;20047;-81
2023/01/12 08:44:04;;;;;;;14.07;2.30;;;10.30;92.60;;;;;;5047941;28;20140;-80
2023/01/12 08:46:33;;;;;;;12.93;1.90;;;10.40;92.80;;;;;;5047606;28;20053;-82
2023/01/12 08:49:00;;;;;;;14.93;2.08;;;10.50;92.90;;;;;;5046143;28;20070;-82
2023/01/12 08:51:29;;;;;;;13.70;2.47;;;10.50;92.80;;;;;;5047685;28;20144;-83
2023/01/12 08:53:56;;;;;;;19.73;3.30;;;10.60;92.70;;;;;;5049132;28;20132;-82
2023/01/12 08:56:23;;;;;;;16.27;2.67;;;10.70;92.60;;;;;;5047781;28;20054;-80
2023/01/12 08:58:50;;;;;;;13.27;1.58;;;10.70;92.40;;;;;;5047333;28;20686;-82
2023/01/12 09:01:18;;;;;;;14.50;1.83;;;10.70;92.30;;;;;;5048738;28;20463;-81
2023/01/12 09:03:47;;;;;;;11.73;1.75;;;10.80;92.30;;;;;;5047296;28;20603;-82
2023/01/12 09:06:16;;;;;;;12.90;1.73;;;10.80;92.30;;;;;;5047084;28;20510;-81
2023/01/12 09:08:45;;;;;;;12.93;1.70;;;10.80;92.20;;;;;;5047134;28;20325;-81
2023/01/12 09:11:14;;;;;;;16.38;1.85;;;10.80;92.20;;;;;;5046683;28;20104;-81
2023/01/12 09:13:41;;;;;;;15.27;2.38;;;10.90;92.20;;;;;;5045733;28;20132;-81
2023/01/12 09:16:09;;;;;;;12.27;1.88;;;10.90;92.10;;;;;;5047093;28;20045;-85
2023/01/12 09:18:36;;;;;;;14.85;2.20;;;10.90;91.90;;;;;;5047508;28;20081;-82
2023/01/12 09:21:05;;;;;;;17.33;2.40;;;10.90;91.80;;;;;;5030346;28;20056;-83
2023/01/12 09:23:32;;;;;;;12.73;1.90;;;10.90;91.80;;;;;;5047065;28;20136;-84
2023/01/12 09:26:04;;;;;;;13.70;1.90;;;11.00;91.50;;;;;;5046995;28;20070;-81
2023/01/12 09:28:31;;;;;;;10.02;1.77;;;11.10;91.00;;;;;;5046978;28;20079;-82
2023/01/12 09:31:02;;;;;;;14.63;2.42;;;11.10;90.80;;;;;;5045107;28;20132;-81
2023/01/12 09:33:30;;;;;;;11.43;1.67;;;11.10;90.50;;;;;;5047360;28;20045;-82
2023/01/12 09:36:01;;;;;;;11.00;1.63;;;11.10;90.50;;;;;;5046505;28;20052;-84
2023/01/12 09:38:28;;;;;;;13.48;1.70;;;11.10;90.40;;;;;;5046658;28;20049;-82
2023/01/12 09:40:57;;;;;;;12.50;2.15;;;11.10;90.30;;;;;;5046728;28;20735;-83
2023/01/12 09:49:01;;;;;;;12.15;1.98;;;11.20;89.80;;;;;;5044489;28;20615;-84
2023/01/12 09:51:33;;;;;;;15.63;1.92;;;11.30;89.70;;;;;;5046895;28;20165;-85
2023/01/12 09:54:01;;;;;;;11.68;1.95;;;11.30;89.50;;;;;;5046975;28;20046;-84
2023/01/12 09:56:31;;;;;;;15.18;2.08;;;11.40;89.20;;;;;;5029533;28;20140;-85
2023/01/12 09:59:21;;;;;;;16.03;2.30;;;11.40;88.90;;;;;;5045988;28;20133;-83
2023/01/12 10:01:51;;;;;;;18.10;2.42;;;11.40;89.00;;;;;;5046402;28;20111;-83
2023/01/12 10:04:18;;;;;;;13.88;2.00;;;11.40;88.90;;;;;;5045587;28;20511;-80
2023/01/12 10:06:45;;;;;;;18.48;2.70;;;11.50;88.80;;;;;;5045803;28;20530;-83
2023/01/12 10:09:16;;;;;;;11.95;1.80;;;11.50;88.80;;;;;;5046375;28;20060;-82
2023/01/12 10:11:49;;;;;;;14.70;1.60;;;11.50;88.60;;;;;;5048302;28;20060;-82
2023/01/12 10:14:55;;;;;;;16.75;2.20;;;11.50;88.70;;;;;;5046797;28;20069;-83
2023/01/12 10:17:31;;;;;;;13.30;2.20;;;11.50;88.70;;;;;;5047459;28;20607;-81
2023/01/12 10:20:09;;;;;;;13.68;1.92;;;11.50;88.40;;;;;;5029518;28;20132;-83
2023/01/12 10:22:43;;;;;;;12.57;1.08;;;11.50;88.20;;;;;;5044572;28;20061;-81
2023/01/12 10:25:18;;;;;;;13.03;1.80;;;11.50;88.30;;;;;;5029594;28;20053;-83
2023/01/12 10:27:47;;;;;;;14.75;2.60;;;11.60;88.20;;;;;;5029382;28;20613;-83
2023/01/12 10:30:18;;;;;;;10.07;1.65;;;11.70;87.80;;;;;;5045907;28;20611;-81
2023/01/12 10:32:45;;;;;;;12.90;1.83;;;11.70;87.60;;;;;;5046146;28;20058;-81
2023/01/12 10:35:16;;;;;;;10.95;1.88;;;11.70;87.90;;;;;;5046378;28;20152;-82
2023/01/12 10:37:45;;;;;;;11.83;1.60;;;11.70;88.00;;;;;;5046212;28;20053;-81
2023/01/12 10:40:25;;;;;;;8.40;1.08;;;11.70;88.00;;;;;;5044102;28;20057;-80
2023/01/12 10:45:42;;;;;;;12.80;1.75;;;11.70;88.10;;;;;;5026263;28;20061;-81
2023/01/12 10:48:25;;;;;;;11.25;1.77;;;11.70;87.80;;;;;;5041955;28;20426;-80
2023/01/12 10:50:58;;;;;;;14.13;1.70;;;11.70;87.90;;;;;;5009244;28;20482;-82
2023/01/12 10:53:36;;;;;;;10.32;1.63;;;11.70;87.80;;;;;;5029760;28;20522;-81
2023/01/12 10:56:13;;;;;;;11.52;2.22;;;11.70;87.50;;;;;;5028466;28;20501;-81
2023/01/12 10:58:41;;;;;;;10.20;1.83;;;11.70;87.50;;;;;;5045751;28;20129;-82
2023/01/12 11:01:13;;;;;;;11.38;1.65;;;11.70;87.50;;;;;;5045516;28;20053;-82
2023/01/12 11:03:41;;;;;;;12.83;2.13;;;11.70;87.40;;;;;;5047317;28;20432;-81
2023/01/12 11:06:25;;;;;;;18.65;2.40;;;11.70;87.50;;;;;;5045843;28;20053;-81
2023/01/12 11:08:53;;;;;;;10.43;1.90;;;11.70;87.50;;;;;;5044564;28;20165;-80
2023/01/12 11:11:26;;;;;;;14.70;2.13;;;11.60;87.70;;;;;;5046185;28;20092;-83
2023/01/12 11:13:56;;;;;;;15.05;2.50;;;11.60;87.60;;;;;;5031024;28;20049;-83
2023/01/12 11:16:26;;;;;;;11.50;1.90;;;11.50;87.80;;;;;;5049336;28;20573;-81
2023/01/12 11:19:12;;;;;;;16.67;2.10;;;11.60;87.70;;;;;;5048661;28;20061;-81
2023/01/12 11:21:44;;;;;;;14.85;2.30;;;11.60;87.70;;;;;;5050699;28;20053;-83
2023/01/12 11:24:19;;;;;;;12.27;2.05;;;11.60;87.50;;;;;;5050416;28;20103;-81
2023/01/12 11:26:50;;;;;;;11.30;2.35;;;11.60;87.40;;;;;;5049130;28;20081;-80
2023/01/12 11:29:35;;;;;;;13.20;1.50;;;11.60;87.60;;;;;;5048555;28;20084;-81
2023/01/12 11:32:08;;;;;;;14.50;2.35;;;11.60;87.70;;;;;;5048523;28;20115;-81
2023/01/12 11:34:39;;;;;;;8.80;1.23;;;11.60;87.90;;;;;;5048909;28;20115;-80
2023/01/12 11:37:12;;;;;;;13.38;1.98;;;11.60;88.00;;;;;;5048714;28;20535;-83
2023/01/12 11:39:41;;;;;;;16.15;2.13;;;11.50;88.10;;;;;;5048300;28;20519;-82
2023/01/12 11:45:05;;;;;;;12.18;2.00;;;11.60;88.20;;;;;;5048489;28;20053;-82
2023/01/12 11:47:38;;;;;;;9.85;1.95;;;11.60;88.20;;;;;;5049091;28;20052;-79
2023/01/12 11:50:11;;;;;;;12.60;1.67;;;11.60;88.20;;;;;;5049516;28;20089;-81
2023/01/12 11:52:39;;;;;;;10.15;1.35;;;11.70;87.90;;;;;;5032186;28;20045;-82
2023/01/12 11:55:12;;;;;;;16.17;2.30;;;11.70;87.80;;;;;;5048401;28;20123;-82
2023/01/12 11:57:51;;;;;;;13.13;1.88;;;11.70;87.80;;;;;;5050418;28;20143;-82
2023/01/12 12:00:30;;;;;;;10.82;1.50;;;11.70;87.50;;;;;;5048160;28;20128;-81
2023/01/12 12:03:27;;;;;;;11.43;1.52;;;11.70;87.60;;;;;;5048693;28;20882;-81
2023/01/12 12:06:01;;;;;;;8.65;1.85;;;11.70;87.60;;;;;;5047375;28;20181;-82
2023/01/12 12:08:41;;;;;;;13.47;2.07;;;11.70;87.70;;;;;;5048264;28;20058;-81
2023/01/12 12:11:18;;;;;;;14.15;1.88;;;11.70;87.40;;;;;;5048318;28;20494;-83
2023/01/12 12:13:53;;;;;;;14.95;2.17;;;11.70;87.50;;;;;;5050088;28;20559;-82
2023/01/12 12:16:29;;;;;;;12.13;1.77;;;11.70;87.60;;;;;;5031942;28;20060;-82
2023/01/12 12:19:13;;;;;;;10.90;1.52;;;11.70;87.60;;;;;;5049326;28;20686;-82
2023/01/12 12:21:48;;;;;;;17.40;1.93;;;11.70;87.40;;;;;;5046715;28;20056;-85
2023/01/12 12:24:36;;;;;;;9.90;1.35;;;11.70;87.50;;;;;;5047726;28;20054;-83
2023/01/12 12:27:13;;;;;;;11.23;1.85;;;11.70;87.20;;;;;;5047782;28;20053;-81
2023/01/12 12:30:01;;;;;;;13.85;2.35;;;11.70;87.20;;;;;;5031158;28;20064;-82
2023/01/12 12:32:39;;;;;;;12.00;1.75;;;11.70;87.30;;;;;;5048063;28;20133;-81
2023/01/12 12:35:17;;;;;;;11.00;1.63;;;11.70;87.30;;;;;;5048309;28;20590;-86
2023/01/12 12:37:52;;;;;;;12.43;2.20;;;11.70;87.60;;;;;;5048368;28;20057;-85
2023/01/12 12:45:15;;;;;;;14.40;2.40;;;11.70;88.00;;;;;;5046941;28;20179;-85
2023/01/12 12:46:21;;;;;;;17.42;2.47;;;11.60;88.20;;;;;;5031052;28;20096;-86
2023/01/12 12:48:57;;;;;;;14.50;1.90;;;11.60;88.30;;;;;;5031528;28;20053;-84
2023/01/12 12:51:27;;;;;;;13.02;2.33;;;11.50;88.40;;;;;;5048034;28;20041;-86
2023/01/12 12:53:55;;;;;;;13.00;1.90;;;11.50;88.50;;;;;;5031763;28;20554;-86
2023/01/12 12:56:24;;;;;;;12.48;1.40;;;11.50;88.50;;;;;;5046516;28;20136;-86
2023/01/12 12:58:52;;;;;;;16.38;2.15;;;11.50;88.60;;;;;;5047711;28;20070;-85
2023/01/12 13:02:01;;;;;;;17.93;2.23;;;11.50;88.60;;;;;;5031076;28;20427;-86
2023/01/12 13:05:01;;;;;;;16.00;2.33;;;11.60;88.70;;;;;;5048044;28;20058;-86
2023/01/12 13:07:32;;;;;;;12.07;2.10;;;11.70;88.70;;;;;;5020605;28;20065;-86
2023/01/12 13:10:31;;;;;;;15.02;2.45;;;11.70;88.40;;;;;;5030981;28;20144;-86
2023/01/12 13:13:04;;;;;;;16.10;2.50;;;11.70;88.00;;;;;;5046712;28;20061;-85
2023/01/12 13:15:35;;;;;;;14.60;2.30;;;11.70;87.70;;;;;;5047822;28;20127;-87
2023/01/12 13:18:04;;;;;;;18.55;2.67;;;11.80;87.40;;;;;;5047872;28;20053;-86
2023/01/12 13:20:48;;;;;;;16.33;2.85;;;11.80;87.30;;;;;;5030844;28;20049;-86
2023/01/12 13:23:55;;;;;;;12.88;1.58;;;11.90;87.10;;;;;;5047497;28;20084;-86
2023/01/12 13:26:39;;;;;;;9.43;1.70;;;11.90;86.80;;;;;;5031108;28;20050;-88
2023/01/12 13:29:48;;;;;;;14.13;1.70;;;11.90;86.90;;;;;;5047136;28;20057;-87
2023/01/12 13:32:43;;;;;;;14.50;1.85;;;11.90;86.90;;;;;;5030977;28;20072;-86
2023/01/12 13:35:52;;;;;;;11.95;1.42;;;11.90;86.80;;;;;;5010151;28;20045;-86
2023/01/12 13:38:36;;;;;;;12.23;1.45;;;11.90;86.80;;;;;;4976838;28;20586;-86
2023/01/12 13:41:16;;;;;;;11.98;1.38;;;11.90;86.90;;;;;;5011244;28;20054;-86
2023/01/12 13:43:51;;;;;;;12.00;1.70;;;11.90;87.10;;;;;;5020168;28;20137;-87
2023/01/12 13:46:21;;;;;;;14.70;1.83;;;11.80;87.50;;;;;;5047534;28;20144;-85
2023/01/12 13:48:50;;;;;;;7.90;1.80;;;11.70;87.70;;;;;;5029083;28;20057;-87